Guangfu Airport


Codes: ZSSZ/SZV
Name: Guangfu Airport
City: Suzhou
Country: China
Elevation: 0 ft.

Photos at Guangfu Airport


   Photos courtesy of SpottingLog. You can add your own sightings and photos by signing up for a free trial today.



No photos found.

Weather at Guangfu Airport


Time (UTC)DescriptionTempratureWindCloud coverageVisibilityPressureHumidity
16-Jun-2024 09:00Broken Clouds30°C18 mph, SE76%10000m1005hPa51%
16-Jun-2024 12:00Broken Clouds29°C18 mph, SE80%10000m1006hPa56%
16-Jun-2024 15:00Overcast Clouds27°C13 mph, E92%10000m1006hPa61%
16-Jun-2024 18:00Overcast Clouds26°C7 mph, E100%10000m1005hPa68%
16-Jun-2024 21:00Overcast Clouds25°C9 mph, NE100%10000m1005hPa70%
17-Jun-2024 00:00Overcast Clouds25°C13 mph, NE100%10000m1006hPa73%
17-Jun-2024 03:00Overcast Clouds28°C11 mph, NE100%10000m1006hPa59%
17-Jun-2024 06:00Overcast Clouds29°C7 mph, S97%10000m1005hPa54%
17-Jun-2024 09:00Overcast Clouds28°C13 mph, S91%10000m1005hPa58%
17-Jun-2024 12:00Broken Clouds24°C13 mph, S63%10000m1007hPa72%
17-Jun-2024 15:00Clear Sky22°C11 mph, SE0%10000m1008hPa79%
17-Jun-2024 18:00Clear Sky22°C9 mph, SE0%10000m1007hPa86%
17-Jun-2024 21:00Clear Sky21°C9 mph, SE6%10000m1008hPa88%
18-Jun-2024 00:00Clear Sky24°C11 mph, SE4%10000m1009hPa66%
18-Jun-2024 03:00Clear Sky28°C11 mph, SE4%10000m1008hPa46%
18-Jun-2024 06:00Scattered Clouds30°C16 mph, SE30%10000m1006hPa42%
18-Jun-2024 09:00Overcast Clouds28°C13 mph, SE100%10000m1005hPa47%
18-Jun-2024 12:00Overcast Clouds24°C18 mph, SE100%10000m1006hPa69%
18-Jun-2024 15:00Overcast Clouds23°C18 mph, SE100%10000m1006hPa79%
18-Jun-2024 18:00Overcast Clouds23°C18 mph, SE100%10000m1005hPa82%
18-Jun-2024 21:00Overcast Clouds23°C13 mph, SE100%10000m1005hPa86%
19-Jun-2024 00:00Light Rain23°C13 mph, SE100%10000m1006hPa91%
19-Jun-2024 03:00Moderate Rain23°C13 mph, SE100%8137m1005hPa93%
19-Jun-2024 06:00Moderate Rain23°C13 mph, SE100%10000m1004hPa93%
19-Jun-2024 09:00Light Rain24°C11 mph, S100%10000m1003hPa91%
19-Jun-2024 12:00Light Rain23°C11 mph, SE100%10000m1004hPa92%
19-Jun-2024 15:00Overcast Clouds23°C9 mph, SE100%10000m1003hPa93%
19-Jun-2024 18:00Light Rain23°C9 mph, S100%10000m1002hPa93%
19-Jun-2024 21:00Moderate Rain23°C7 mph, S100%3781m1002hPa95%
20-Jun-2024 00:00Moderate Rain24°C9 mph, S100%10000m1003hPa93%
20-Jun-2024 03:00Moderate Rain24°C11 mph, S100%10000m1003hPa95%
20-Jun-2024 06:00Light Rain24°C11 mph, S100%10000m1002hPa94%
20-Jun-2024 09:00Light Rain25°C11 mph, S99%10000m1002hPa91%
20-Jun-2024 12:00Light Rain25°C9 mph, S93%10000m1002hPa92%
20-Jun-2024 15:00Overcast Clouds25°C7 mph, S96%10000m1003hPa92%
20-Jun-2024 18:00Overcast Clouds25°C4 mph, SW98%10000m1002hPa89%
20-Jun-2024 21:00Light Rain25°C7 mph, SW100%10000m1002hPa88%
21-Jun-2024 00:00Overcast Clouds26°C9 mph, S100%10000m1003hPa85%
21-Jun-2024 03:00Overcast Clouds26°C7 mph, S100%10000m1003hPa86%
21-Jun-2024 06:00Overcast Clouds27°C9 mph, S100%10000m1002hPa82%